EDDP/LEJ METAR and TAF weather

Enter ICAO airport designator
Station Type Date Time Source
EDDP METAR 2021/03/08 12:20 UTC NOAA

EDDP 081220Z 07005KT 010V180 9999 FEW042 06/M05 Q1022 NOSIG


Station Type Date Time Source
EDDP Decoded METAR 2021/03/08 12:20 UTC NOAA

Leipzig-Schkeuditz, Germany (EDDP) 51-25N 012-14E 149M
Mar 08, 2021 - 07:20 AM EST / 2021.03.08 1220 UTC
Wind: from the ENE (070 degrees) at 6 MPH (5 KT) (direction variable):0
Visibility: greater than 7 mile(s):0
Sky conditions: mostly clear
Temperature: 42 F (6 C)
Dew Point: 23 F (-5 C)
Relative Humidity: 45%
Pressure (altimeter): 30.18 in. Hg (1022 hPa)
ob: EDDP 081220Z 07005KT 010V180 9999 FEW042 06/M05 Q1022 NOSIG
cycle: 12

Station Type Date Time Source
EDDP TAF 2021/03/08 12:27 UTC NOAA

TAF EDDP 081100Z 0812/0912 03006KT 9999 FEW030
BECMG 0817/0820 11004KT
BECMG 0910/0912 17006KT

Example: see airport list